Time;durP1;ratioP1;P1;durP2;ratioP2;P2;SDS_P1;SDS_P2;PMS_P1;PMS_P2;Temp;Humidity;BMP_temperature;BMP_pressure;BME280_temperature;BME280_humidity;BME280_pressure;Samples;Min_cycle;Max_cycle;Signal;HPM_P1;HPM_P2
2022/09/29 00:00:35;;;;;;;10.95;7.72;;;;;;;;;;5050842;28;20036;-78
2022/09/29 00:03:01;;;;;;;10.40;7.68;;;;;;;;;;5058043;28;20024;-78
2022/09/29 00:05:27;;;;;;;10.57;7.68;;;;;;;;;;5070753;28;20025;-78
2022/09/29 00:07:53;;;;;;;8.18;6.57;;;;;;;;;;5071033;28;20054;-78
2022/09/29 00:10:19;;;;;;;13.80;8.20;;;;;;;;;;5070644;28;20099;-78
2022/09/29 00:12:46;;;;;;;11.60;8.48;;;;;;;;;;5063832;28;20024;-78
2022/09/29 00:15:13;;;;;;;8.50;6.57;;;;;;;;;;5050667;28;20041;-78
2022/09/29 00:17:39;;;;;;;9.70;7.35;;;;;;;;;;5051074;28;20097;-78
2022/09/29 00:20:05;;;;;;;9.00;6.90;;;;;;;;;;5050547;28;20032;-78
2022/09/29 00:22:32;;;;;;;9.50;7.78;;;;;;;;;;5049875;28;20056;-79
2022/09/29 00:24:58;;;;;;;13.50;8.30;;;;;;;;;;5050692;28;20044;-78
2022/09/29 00:27:24;;;;;;;10.63;8.35;;;;;;;;;;5050736;28;20036;-79
2022/09/29 00:29:50;;;;;;;11.68;8.38;;;;;;;;;;5050456;28;20044;-78
2022/09/29 00:32:16;;;;;;;10.38;7.68;;;;;;;;;;5050461;28;20476;-79
2022/09/29 00:34:43;;;;;;;9.95;8.13;;;;;;;;;;5058371;28;20036;-78
2022/09/29 00:37:09;;;;;;;10.00;8.05;;;;;;;;;;5068799;28;20037;-78
2022/09/29 00:39:35;;;;;;;12.02;8.93;;;;;;;;;;5069234;28;20036;-78
2022/09/29 00:42:01;;;;;;;12.18;8.15;;;;;;;;;;5050429;28;20410;-78
2022/09/29 00:44:46;;;;;;;10.75;8.02;;;;;;;;;;5049676;28;20028;-78
2022/09/29 00:47:17;;;;;;;9.60;8.02;;;;;;;;;;5049968;28;20056;-78
2022/09/29 00:49:55;;;;;;;9.27;7.00;;;;;;;;;;5048646;28;20047;-78
2022/09/29 00:52:35;;;;;;;12.55;8.23;;;;;;;;;;5049484;28;20033;-78
2022/09/29 00:55:17;;;;;;;10.23;8.00;;;;;;;;;;5049020;28;20066;-78
2022/09/29 00:58:04;;;;;;;11.43;8.70;;;;;;;;;;5050218;28;20028;-78
2022/09/29 01:00:30;;;;;;;9.57;7.70;;;;;;;;;;5050850;28;20068;-78
2022/09/29 01:03:11;;;;;;;12.38;10.38;;;;;;;;;;5048839;28;20031;-78
2022/09/29 01:05:40;;;;;;;12.23;8.80;;;;;;;;;;5047440;28;20090;-78
2022/09/29 01:08:11;;;;;;;12.63;8.45;;;;;;;;;;5048039;28;20032;-78
2022/09/29 01:10:39;;;;;;;11.73;8.88;;;;;;;;;;5058352;28;20030;-79
2022/09/29 01:13:05;;;;;;;10.95;8.70;;;;;;;;;;5069328;28;20025;-78
2022/09/29 01:15:32;;;;;;;13.82;10.13;;;;;;;;;;5068929;28;20029;-77
2022/09/29 01:17:58;;;;;;;12.80;10.27;;;;;;;;;;5068146;28;20119;-77
2022/09/29 01:20:24;;;;;;;11.82;8.65;;;;;;;;;;5069312;28;20436;-77
2022/09/29 01:23:17;;;;;;;12.02;8.85;;;;;;;;;;5068858;28;20128;-77
2022/09/29 01:26:02;;;;;;;12.07;9.02;;;;;;;;;;5059558;28;20029;-77
2022/09/29 01:28:47;;;;;;;10.63;8.65;;;;;;;;;;5067743;28;20025;-78
2022/09/29 01:31:17;;;;;;;12.50;8.93;;;;;;;;;;5069242;28;20151;-78
2022/09/29 01:33:42;;;;;;;11.27;9.32;;;;;;;;;;5067093;28;20021;-78
2022/09/29 01:36:11;;;;;;;10.57;8.80;;;;;;;;;;5050534;28;20652;-78
2022/09/29 01:38:44;;;;;;;10.93;8.32;;;;;;;;;;5048958;28;20071;-77
2022/09/29 01:41:16;;;;;;;13.70;9.50;;;;;;;;;;5047878;28;20021;-78
2022/09/29 01:44:00;;;;;;;13.25;9.40;;;;;;;;;;5049536;28;20060;-78
2022/09/29 01:46:48;;;;;;;12.45;9.80;;;;;;;;;;5048858;28;20025;-78
2022/09/29 01:49:14;;;;;;;12.07;9.48;;;;;;;;;;5047506;28;20484;-78
2022/09/29 01:52:06;;;;;;;10.68;8.60;;;;;;;;;;5049249;28;20060;-78
2022/09/29 01:54:52;;;;;;;13.20;8.75;;;;;;;;;;5049432;28;20052;-78
2022/09/29 01:57:18;;;;;;;9.85;7.78;;;;;;;;;;5048487;28;20102;-77
2022/09/29 01:59:50;;;;;;;13.75;8.30;;;;;;;;;;5049317;28;20021;-78
2022/09/29 02:02:19;;;;;;;11.35;9.07;;;;;;;;;;5048623;28;20037;-78
2022/09/29 02:04:52;;;;;;;11.75;8.77;;;;;;;;;;5049420;28;20032;-78
2022/09/29 02:07:31;;;;;;;9.68;7.65;;;;;;;;;;5049004;28;20029;-78
2022/09/29 02:10:01;;;;;;;12.75;8.73;;;;;;;;;;5047175;28;20702;-79
2022/09/29 02:12:29;;;;;;;11.23;9.05;;;;;;;;;;5048937;28;20026;-79
2022/09/29 02:14:56;;;;;;;11.70;9.25;;;;;;;;;;5049223;28;20622;-78
2022/09/29 02:17:26;;;;;;;11.90;8.70;;;;;;;;;;5050401;28;20058;-78
2022/09/29 02:19:53;;;;;;;14.43;9.82;;;;;;;;;;5052670;28;20032;-78
2022/09/29 02:22:19;;;;;;;10.98;9.13;;;;;;;;;;5052169;28;20084;-78
2022/09/29 02:24:45;;;;;;;14.80;9.55;;;;;;;;;;5052630;28;20490;-78
2022/09/29 02:27:12;;;;;;;12.50;10.13;;;;;;;;;;5053048;28;20394;-78
2022/09/29 02:29:38;;;;;;;13.48;9.57;;;;;;;;;;5052883;28;20029;-78
2022/09/29 02:32:05;;;;;;;11.30;8.82;;;;;;;;;;5070290;28;20052;-76
2022/09/29 02:34:33;;;;;;;12.95;8.98;;;;;;;;;;5063151;28;20122;-78
2022/09/29 02:36:59;;;;;;;12.60;8.88;;;;;;;;;;5050669;28;20113;-77
2022/09/29 02:39:28;;;;;;;19.42;9.30;;;;;;;;;;5052199;28;20070;-77
2022/09/29 02:42:01;;;;;;;11.43;7.40;;;;;;;;;;5052769;28;20060;-77
2022/09/29 02:44:41;;;;;;;10.73;8.57;;;;;;;;;;5051787;28;20033;-78
2022/09/29 02:47:23;;;;;;;14.27;8.65;;;;;;;;;;5051866;28;20044;-78
2022/09/29 02:50:06;;;;;;;11.05;9.15;;;;;;;;;;5050599;28;20511;-78
2022/09/29 02:52:51;;;;;;;11.95;8.88;;;;;;;;;;5051777;28;20075;-77
2022/09/29 02:55:19;;;;;;;11.77;8.75;;;;;;;;;;5052208;28;20075;-78
2022/09/29 02:57:48;;;;;;;12.40;9.35;;;;;;;;;;5051997;28;20027;-78
2022/09/29 03:00:15;;;;;;;11.85;9.95;;;;;;;;;;5054249;28;20017;-77
2022/09/29 03:02:42;;;;;;;12.55;10.20;;;;;;;;;;5072529;28;20032;-77
2022/09/29 03:05:09;;;;;;;14.65;10.02;;;;;;;;;;5072701;28;20020;-77
2022/09/29 03:07:37;;;;;;;12.85;9.50;;;;;;;;;;5072735;28;20037;-77
2022/09/29 03:10:03;;;;;;;16.70;10.65;;;;;;;;;;5072343;28;20034;-76
2022/09/29 03:12:29;;;;;;;15.70;11.07;;;;;;;;;;5072022;28;20065;-79
2022/09/29 03:14:55;;;;;;;16.35;10.85;;;;;;;;;;5071639;28;20060;-77
2022/09/29 03:17:21;;;;;;;12.88;9.85;;;;;;;;;;5071811;28;20083;-78
2022/09/29 03:19:47;;;;;;;14.15;9.90;;;;;;;;;;5072701;28;20089;-78
2022/09/29 03:22:13;;;;;;;14.55;10.13;;;;;;;;;;5072104;28;20049;-78
2022/09/29 03:24:40;;;;;;;12.75;9.40;;;;;;;;;;5072278;28;20035;-78
2022/09/29 03:27:08;;;;;;;13.23;9.98;;;;;;;;;;5072563;28;20103;-78
2022/09/29 03:29:34;;;;;;;17.27;10.90;;;;;;;;;;5052826;28;20503;-77
2022/09/29 03:32:01;;;;;;;13.43;9.30;;;;;;;;;;5051048;28;20025;-78
2022/09/29 03:34:27;;;;;;;13.95;10.52;;;;;;;;;;5055033;28;20492;-78
2022/09/29 03:36:53;;;;;;;15.00;10.68;;;;;;;;;;5052366;28;20032;-78
2022/09/29 03:39:19;;;;;;;14.68;9.88;;;;;;;;;;5051558;28;20035;-77
2022/09/29 03:41:46;;;;;;;14.48;11.30;;;;;;;;;;5051781;28;20021;-78
2022/09/29 03:44:13;;;;;;;14.00;12.30;;;;;;;;;;5050949;28;20547;-78
2022/09/29 03:46:39;;;;;;;16.00;11.07;;;;;;;;;;5051710;28;20507;-78
2022/09/29 03:49:05;;;;;;;16.25;10.90;;;;;;;;;;5051026;28;20025;-78
2022/09/29 03:51:31;;;;;;;13.60;11.13;;;;;;;;;;5050837;28;20097;-78
2022/09/29 03:53:57;;;;;;;12.20;10.65;;;;;;;;;;5051339;28;20398;-78
2022/09/29 03:56:23;;;;;;;13.45;11.35;;;;;;;;;;5051092;28;20029;-78
2022/09/29 03:58:49;;;;;;;13.05;10.43;;;;;;;;;;5051280;28;20041;-78
2022/09/29 04:01:15;;;;;;;13.75;11.10;;;;;;;;;;5062150;28;20028;-78
2022/09/29 04:03:41;;;;;;;15.65;11.50;;;;;;;;;;5071122;28;20540;-78
2022/09/29 04:06:07;;;;;;;14.20;10.45;;;;;;;;;;5071020;28;20024;-78
2022/09/29 04:08:36;;;;;;;16.27;10.52;;;;;;;;;;5070411;28;20040;-78
2022/09/29 04:11:02;;;;;;;12.18;9.57;;;;;;;;;;5057326;28;20035;-78
2022/09/29 04:13:28;;;;;;;14.00;10.80;;;;;;;;;;5051037;28;20027;-78
2022/09/29 04:15:59;;;;;;;15.02;10.70;;;;;;;;;;5050537;28;20041;-78
2022/09/29 04:18:25;;;;;;;16.20;11.20;;;;;;;;;;5050482;28;20029;-78
2022/09/29 04:20:53;;;;;;;14.40;10.55;;;;;;;;;;5050911;28;20025;-78
2022/09/29 04:23:19;;;;;;;13.63;10.02;;;;;;;;;;5050536;28;20048;-77
2022/09/29 04:25:45;;;;;;;18.48;10.80;;;;;;;;;;5050384;28;20044;-77
2022/09/29 04:28:11;;;;;;;13.15;10.93;;;;;;;;;;5048983;28;20032;-77
2022/09/29 04:30:38;;;;;;;12.45;10.35;;;;;;;;;;5050661;28;20491;-77
2022/09/29 04:33:04;;;;;;;15.82;11.07;;;;;;;;;;5050531;28;20025;-77
2022/09/29 04:35:30;;;;;;;16.50;11.50;;;;;;;;;;5066825;28;20112;-77
2022/09/29 04:37:58;;;;;;;15.18;11.43;;;;;;;;;;5069889;28;20455;-78
2022/09/29 04:40:24;;;;;;;16.05;11.52;;;;;;;;;;5067899;28;20036;-78
2022/09/29 04:42:50;;;;;;;13.82;11.02;;;;;;;;;;5069912;28;20461;-78
2022/09/29 04:45:16;;;;;;;16.27;11.65;;;;;;;;;;5069079;28;20139;-77
2022/09/29 04:47:42;;;;;;;18.77;11.20;;;;;;;;;;5069645;28;20024;-77
2022/09/29 04:50:08;;;;;;;29.20;13.48;;;;;;;;;;5070139;28;20089;-76
2022/09/29 04:52:35;;;;;;;20.58;11.90;;;;;;;;;;5068834;28;20028;-76
2022/09/29 04:55:01;;;;;;;34.75;13.32;;;;;;;;;;5069747;28;20486;-76
2022/09/29 04:57:27;;;;;;;49.22;13.82;;;;;;;;;;5070226;28;20025;-77
2022/09/29 04:59:54;;;;;;;45.03;13.73;;;;;;;;;;5069551;28;20024;-77
2022/09/29 05:02:21;;;;;;;47.67;13.35;;;;;;;;;;5069605;28;20021;-78
2022/09/29 05:04:46;;;;;;;70.28;13.98;;;;;;;;;;5069897;28;20059;-78
2022/09/29 05:07:13;;;;;;;55.58;13.63;;;;;;;;;;5064773;28;20623;-78
2022/09/29 05:09:40;;;;;;;41.63;13.13;;;;;;;;;;5049006;28;20112;-78
2022/09/29 05:12:06;;;;;;;25.92;11.85;;;;;;;;;;5048243;28;20036;-77
2022/09/29 05:14:32;;;;;;;33.05;10.32;;;;;;;;;;5047941;28;20646;-76
2022/09/29 05:16:58;;;;;;;21.10;10.40;;;;;;;;;;5047972;28;20108;-76
2022/09/29 05:19:24;;;;;;;26.55;11.35;;;;;;;;;;5048171;28;20615;-76
2022/09/29 05:21:50;;;;;;;27.60;12.02;;;;;;;;;;5047312;28;20457;-76
2022/09/29 05:24:16;;;;;;;39.75;12.32;;;;;;;;;;5049177;28;20028;-76
2022/09/29 05:26:42;;;;;;;51.78;14.82;;;;;;;;;;5049424;28;20023;-76
2022/09/29 05:29:08;;;;;;;41.20;15.10;;;;;;;;;;5049717;28;20025;-76
2022/09/29 05:31:34;;;;;;;92.03;16.92;;;;;;;;;;5049502;28;20039;-76
2022/09/29 05:34:00;;;;;;;30.92;12.18;;;;;;;;;;5053839;28;20029;-76
2022/09/29 05:36:26;;;;;;;43.90;13.68;;;;;;;;;;5067917;28;20057;-76
2022/09/29 05:38:52;;;;;;;70.10;14.93;;;;;;;;;;5068350;28;20035;-76
2022/09/29 05:41:22;;;;;;;77.53;16.48;;;;;;;;;;5068810;28;20029;-76
2022/09/29 05:43:49;;;;;;;73.30;13.65;;;;;;;;;;5069589;28;20032;-76
2022/09/29 05:46:15;;;;;;;64.47;14.02;;;;;;;;;;5069085;28;20047;-77
2022/09/29 05:48:45;;;;;;;53.58;15.80;;;;;;;;;;5069926;28;20032;-76
2022/09/29 05:51:12;;;;;;;68.18;15.30;;;;;;;;;;5070730;28;20297;-75
2022/09/29 05:53:38;;;;;;;91.95;14.93;;;;;;;;;;5073564;28;20085;-77
2022/09/29 05:56:11;;;;;;;72.32;14.55;;;;;;;;;;5054316;28;20116;-77
2022/09/29 05:58:38;;;;;;;7.88;4.07;;;;;;;;;;5055880;28;20037;-77
2022/09/29 06:01:07;;;;;;;47.45;9.88;;;;;;;;;;5057654;28;20031;-76
2022/09/29 06:03:34;;;;;;;50.05;10.57;;;;;;;;;;5074719;28;20021;-80
2022/09/29 06:06:14;;;;;;;24.77;10.10;;;;;;;;;;5075347;28;20033;-77
2022/09/29 06:08:40;;;;;;;60.92;13.07;;;;;;;;;;5062152;28;20186;-78
2022/09/29 06:11:07;;;;;;;64.63;14.52;;;;;;;;;;5064676;28;20592;-78
2022/09/29 06:13:36;;;;;;;41.42;12.60;;;;;;;;;;5067213;28;20077;-78
2022/09/29 06:16:02;;;;;;;86.43;12.90;;;;;;;;;;5066404;28;20503;-77
2022/09/29 06:18:29;;;;;;;76.15;14.27;;;;;;;;;;5064585;28;20095;-78
2022/09/29 06:20:59;;;;;;;82.20;15.45;;;;;;;;;;5065673;28;20020;-75
2022/09/29 06:23:25;;;;;;;28.42;11.73;;;;;;;;;;5064438;28;20514;-78
2022/09/29 06:25:55;;;;;;;25.48;11.73;;;;;;;;;;5057413;28;20032;-79
2022/09/29 06:28:22;;;;;;;40.20;10.57;;;;;;;;;;5059118;28;20746;-79
2022/09/29 06:30:48;;;;;;;46.42;11.68;;;;;;;;;;5064241;28;20029;-75
2022/09/29 06:33:14;;;;;;;22.08;10.77;;;;;;;;;;5057626;28;20043;-76
2022/09/29 06:38:31;;;;;;;15.88;8.30;;;;;;;;;;5058502;28;20047;-76
2022/09/29 06:40:57;;;;;;;35.33;11.05;;;;;;;;;;5058050;28;20029;-77
2022/09/29 06:43:23;;;;;;;24.60;9.48;;;;;;;;;;5056373;28;20047;-78
2022/09/29 06:45:49;;;;;;;22.20;9.98;;;;;;;;;;5060285;28;20028;-78
2022/09/29 06:48:15;;;;;;;56.83;13.75;;;;;;;;;;5059300;28;20050;-78
2022/09/29 06:50:41;;;;;;;56.33;12.75;;;;;;;;;;5057266;28;20992;-78
2022/09/29 06:53:07;;;;;;;30.92;9.43;;;;;;;;;;5062062;28;20021;-76
2022/09/29 06:55:34;;;;;;;138.35;17.70;;;;;;;;;;5055795;28;20037;-76
2022/09/29 06:58:00;;;;;;;90.15;13.85;;;;;;;;;;5058631;28;20052;-74
2022/09/29 07:00:26;;;;;;;53.47;13.80;;;;;;;;;;5059406;28;20036;-76
2022/09/29 07:02:53;;;;;;;42.17;12.60;;;;;;;;;;5058185;28;20383;-75
2022/09/29 07:05:19;;;;;;;101.70;16.33;;;;;;;;;;5054377;28;20024;-75
2022/09/29 07:07:47;;;;;;;40.15;11.98;;;;;;;;;;5055834;28;20020;-75
2022/09/29 07:10:14;;;;;;;120.80;18.25;;;;;;;;;;5055632;28;20043;-75
2022/09/29 07:12:43;;;;;;;16.23;9.50;;;;;;;;;;5055696;28;20021;-75
2022/09/29 07:15:09;;;;;;;228.05;22.52;;;;;;;;;;5055108;28;20041;-75
2022/09/29 07:17:35;;;;;;;161.73;18.50;;;;;;;;;;5054360;28;20056;-75
2022/09/29 07:20:01;;;;;;;79.35;14.45;;;;;;;;;;5056329;28;20538;-75
2022/09/29 07:22:27;;;;;;;16.80;11.07;;;;;;;;;;5055687;28;20052;-75
2022/09/29 07:24:53;;;;;;;17.42;10.25;;;;;;;;;;5053397;28;20044;-75
2022/09/29 07:27:23;;;;;;;18.27;11.82;;;;;;;;;;5056903;28;21054;-75
2022/09/29 07:29:50;;;;;;;17.92;11.02;;;;;;;;;;5056783;28;20119;-75
2022/09/29 07:32:16;;;;;;;28.50;15.02;;;;;;;;;;5055035;28;20029;-75
2022/09/29 07:34:43;;;;;;;19.98;14.48;;;;;;;;;;5056221;28;20033;-75
2022/09/29 07:37:09;;;;;;;20.40;13.07;;;;;;;;;;5061113;28;20028;-75
2022/09/29 07:39:35;;;;;;;26.15;15.82;;;;;;;;;;5052258;28;20703;-76
2022/09/29 07:42:02;;;;;;;29.98;13.38;;;;;;;;;;5053917;28;20033;-76
2022/09/29 07:44:30;;;;;;;12.45;8.85;;;;;;;;;;5058802;28;20036;-76
2022/09/29 07:46:56;;;;;;;27.50;14.70;;;;;;;;;;5055349;28;20028;-75
2022/09/29 07:49:22;;;;;;;20.13;13.93;;;;;;;;;;5057541;28;20024;-75
2022/09/29 07:51:48;;;;;;;53.03;16.55;;;;;;;;;;5055723;28;20033;-76
2022/09/29 07:54:15;;;;;;;26.25;14.50;;;;;;;;;;5055427;28;20032;-75
2022/09/29 07:56:41;;;;;;;24.50;12.88;;;;;;;;;;5057483;28;20024;-75
2022/09/29 07:59:07;;;;;;;18.02;14.55;;;;;;;;;;5051017;28;20041;-75
2022/09/29 08:01:34;;;;;;;15.05;11.05;;;;;;;;;;5055768;28;20215;-75
2022/09/29 08:04:01;;;;;;;65.82;19.40;;;;;;;;;;5059790;28;20099;-78
2022/09/29 08:06:27;;;;;;;19.77;15.30;;;;;;;;;;5056873;28;20032;-77
2022/09/29 08:08:53;;;;;;;32.60;16.52;;;;;;;;;;5059576;28;20056;-77
2022/09/29 08:11:20;;;;;;;19.77;14.43;;;;;;;;;;5058785;28;20044;-76
2022/09/29 08:13:52;;;;;;;15.27;10.20;;;;;;;;;;5059584;28;20025;-76
2022/09/29 08:16:18;;;;;;;18.27;14.23;;;;;;;;;;5057958;28;20148;-75
2022/09/29 08:18:44;;;;;;;23.20;15.88;;;;;;;;;;5056768;28;20036;-76
2022/09/29 08:21:11;;;;;;;29.45;20.75;;;;;;;;;;5055298;28;20028;-76
2022/09/29 08:23:38;;;;;;;28.88;23.85;;;;;;;;;;5054925;28;20040;-75
2022/09/29 08:26:06;;;;;;;33.30;23.10;;;;;;;;;;5055368;28;20033;-75
2022/09/29 08:28:33;;;;;;;19.02;15.70;;;;;;;;;;5053073;28;20029;-75
2022/09/29 08:31:03;;;;;;;24.38;17.25;;;;;;;;;;5049262;28;20620;-75
2022/09/29 08:33:29;;;;;;;23.55;19.23;;;;;;;;;;5053183;28;20112;-75
2022/09/29 08:35:57;;;;;;;36.25;27.55;;;;;;;;;;5057375;28;20039;-75
2022/09/29 08:38:23;;;;;;;26.52;22.90;;;;;;;;;;5053509;28;20029;-76
2022/09/29 08:40:49;;;;;;;19.08;16.00;;;;;;;;;;5054848;28;20031;-75
2022/09/29 08:43:35;;;;;;;22.88;18.58;;;;;;;;;;5055203;28;20037;-76
2022/09/29 08:46:07;;;;;;;34.28;28.63;;;;;;;;;;5055479;28;20479;-74
2022/09/29 08:48:36;;;;;;;27.75;23.00;;;;;;;;;;5054581;28;20020;-76
2022/09/29 08:51:04;;;;;;;16.13;12.43;;;;;;;;;;5053885;28;20029;-76
2022/09/29 08:53:32;;;;;;;28.40;25.17;;;;;;;;;;5052708;28;20450;-76
2022/09/29 08:56:00;;;;;;;40.00;31.15;;;;;;;;;;5055971;28;20483;-76
2022/09/29 08:58:26;;;;;;;37.45;32.28;;;;;;;;;;5058090;28;20033;-77
2022/09/29 09:01:01;;;;;;;24.40;20.45;;;;;;;;;;5052501;28;20323;-76
2022/09/29 09:03:46;;;;;;;36.13;27.58;;;;;;;;;;5051123;28;20029;-76
2022/09/29 09:06:17;;;;;;;36.95;29.85;;;;;;;;;;5055057;28;20422;-75
2022/09/29 09:08:49;;;;;;;27.55;23.45;;;;;;;;;;5051578;28;20032;-76
2022/09/29 09:11:33;;;;;;;26.92;22.15;;;;;;;;;;5054164;28;20028;-77
2022/09/29 09:14:06;;;;;;;40.30;35.35;;;;;;;;;;5052898;28;20033;-78
2022/09/29 09:16:38;;;;;;;28.05;24.73;;;;;;;;;;5052336;28;20108;-79
2022/09/29 09:19:10;;;;;;;24.95;19.27;;;;;;;;;;5054777;28;20021;-76
2022/09/29 09:21:43;;;;;;;38.05;31.83;;;;;;;;;;5056208;28;20052;-77
2022/09/29 09:24:10;;;;;;;31.58;27.63;;;;;;;;;;5050099;28;20025;-77
2022/09/29 09:26:38;;;;;;;34.22;28.67;;;;;;;;;;5056162;28;20021;-78
2022/09/29 09:29:06;;;;;;;33.65;30.02;;;;;;;;;;5050155;28;20491;-77
2022/09/29 09:31:56;;;;;;;33.97;29.52;;;;;;;;;;5054918;28;20033;-79
2022/09/29 09:34:35;;;;;;;33.72;29.75;;;;;;;;;;5054824;28;20041;-73
2022/09/29 09:37:07;;;;;;;32.43;29.10;;;;;;;;;;5054208;28;20055;-78
2022/09/29 09:39:39;;;;;;;31.60;27.50;;;;;;;;;;5057296;28;20031;-77
2022/09/29 09:42:13;;;;;;;28.77;25.75;;;;;;;;;;5056756;28;20087;-76
2022/09/29 09:44:41;;;;;;;27.80;22.90;;;;;;;;;;5053714;28;20031;-77
2022/09/29 09:47:24;;;;;;;29.08;25.08;;;;;;;;;;5052399;28;20028;-78
2022/09/29 09:49:53;;;;;;;33.58;28.50;;;;;;;;;;5054885;28;21319;-78
2022/09/29 09:52:29;;;;;;;28.58;25.38;;;;;;;;;;5055260;28;20052;-79
2022/09/29 09:54:57;;;;;;;20.23;17.95;;;;;;;;;;5052192;28;20075;-76
2022/09/29 09:57:30;;;;;;;28.50;22.90;;;;;;;;;;5049800;28;20036;-77
2022/09/29 10:00:00;;;;;;;17.77;15.85;;;;;;;;;;5048180;28;20028;-76
2022/09/29 10:02:26;;;;;;;21.45;16.75;;;;;;;;;;5053586;28;20031;-75
2022/09/29 10:04:53;;;;;;;21.50;18.27;;;;;;;;;;5052615;28;20028;-79
2022/09/29 10:07:20;;;;;;;22.85;18.30;;;;;;;;;;5059077;28;21279;-77
2022/09/29 10:09:47;;;;;;;23.30;17.85;;;;;;;;;;5053262;28;20083;-78
2022/09/29 10:12:17;;;;;;;18.52;16.63;;;;;;;;;;5054474;28;20082;-78
2022/09/29 10:15:07;;;;;;;19.92;17.83;;;;;;;;;;5052590;28;20095;-78
2022/09/29 10:17:37;;;;;;;20.58;18.40;;;;;;;;;;5053943;28;20043;-78
2022/09/29 10:20:04;;;;;;;;;;;;;;;;;;5053596;28;20048;-77
2022/09/29 10:22:31;;;;;;;15.43;13.05;;;;;;;;;;5055335;28;19974;-78
2022/09/29 10:25:14;;;;;;;16.98;13.68;;;;;;;;;;5054527;28;20116;-79
2022/09/29 10:27:47;;;;;;;14.45;12.38;;;;;;;;;;5053766;28;20024;-79
2022/09/29 10:30:17;;;;;;;19.58;16.90;;;;;;;;;;5049888;28;20021;-79
2022/09/29 10:32:44;;;;;;;18.48;16.27;;;;;;;;;;5054166;28;20021;-79
2022/09/29 10:35:19;;;;;;;13.50;11.27;;;;;;;;;;5055548;28;20048;-79
2022/09/29 10:37:50;;;;;;;21.45;16.23;;;;;;;;;;5054807;28;21467;-78
2022/09/29 10:40:20;;;;;;;13.68;11.98;;;;;;;;;;5054950;28;20072;-79
2022/09/29 10:42:47;;;;;;;14.65;12.05;;;;;;;;;;5057027;28;20111;-78
2022/09/29 10:45:16;;;;;;;13.50;11.55;;;;;;;;;;5057852;28;20020;-76
2022/09/29 10:47:47;;;;;;;16.65;13.35;;;;;;;;;;5056372;28;20063;-79
2022/09/29 10:50:21;;;;;;;10.82;7.90;;;;;;;;;;5055716;28;20083;-78
2022/09/29 10:52:50;;;;;;;13.07;10.00;;;;;;;;;;5060850;28;20083;-77
2022/09/29 10:55:21;;;;;;;12.50;10.85;;;;;;;;;;5057905;28;20036;-78
2022/09/29 10:57:47;;;;;;;15.02;11.88;;;;;;;;;;5056921;28;20468;-78
2022/09/29 11:00:25;;;;;;;11.70;10.00;;;;;;;;;;5051734;28;20130;-79
2022/09/29 11:02:52;;;;;;;13.60;9.70;;;;;;;;;;5055423;28;20029;-77
2022/09/29 11:05:22;;;;;;;14.88;11.68;;;;;;;;;;5053920;28;20029;-76
2022/09/29 11:07:49;;;;;;;17.00;11.85;;;;;;;;;;5052490;28;20063;-78
2022/09/29 11:10:33;;;;;;;12.45;8.13;;;;;;;;;;5053775;28;20039;-79
2022/09/29 11:13:07;;;;;;;10.23;7.80;;;;;;;;;;5050938;28;20041;-77
2022/09/29 11:15:40;;;;;;;10.10;8.43;;;;;;;;;;5054992;28;20033;-77
2022/09/29 11:18:20;;;;;;;13.07;9.15;;;;;;;;;;5054249;28;20037;-78
2022/09/29 11:20:51;;;;;;;8.00;3.88;;;;;;;;;;5053039;28;20033;-78
2022/09/29 11:23:22;;;;;;;8.88;7.43;;;;;;;;;;5054200;28;20132;-79
2022/09/29 11:25:51;;;;;;;9.88;7.13;;;;;;;;;;5054604;28;20021;-77
2022/09/29 11:28:23;;;;;;;9.48;7.00;;;;;;;;;;5055495;28;20123;-78
2022/09/29 11:30:52;;;;;;;9.23;6.95;;;;;;;;;;5051168;28;20024;-78
2022/09/29 11:33:26;;;;;;;9.88;7.65;;;;;;;;;;5051627;28;20037;-78
2022/09/29 11:35:56;;;;;;;11.65;5.32;;;;;;;;;;5050992;28;20702;-78
2022/09/29 11:38:22;;;;;;;;;;;;;;;;;;5052420;28;20017;-78
2022/09/29 11:41:07;;;;;;;7.00;4.50;;;;;;;;;;5053261;28;19919;-74
2022/09/29 11:43:33;;;;;;;8.48;6.03;;;;;;;;;;5056673;28;20094;-77
2022/09/29 11:46:12;;;;;;;9.05;5.97;;;;;;;;;;5057842;28;20063;-76
2022/09/29 11:48:42;;;;;;;4.07;2.05;;;;;;;;;;5054493;28;20033;-77
2022/09/29 11:51:14;;;;;;;5.70;3.20;;;;;;;;;;5060486;28;20029;-78
2022/09/29 11:53:50;;;;;;;7.90;5.78;;;;;;;;;;5059427;28;20148;-78
2022/09/29 11:56:30;;;;;;;7.03;3.78;;;;;;;;;;5053246;28;20037;-79
2022/09/29 11:59:15;;;;;;;5.82;4.45;;;;;;;;;;5052519;28;20029;-79
2022/09/29 12:02:15;;;;;;;8.65;5.28;;;;;;;;;;5050321;28;20086;-79
2022/09/29 12:05:04;;;;;;;5.03;3.30;;;;;;;;;;5048934;28;20545;-77
2022/09/29 12:07:30;;;;;;;4.30;2.28;;;;;;;;;;5069132;28;20048;-77
2022/09/29 12:10:15;;;;;;;9.45;4.25;;;;;;;;;;5063540;28;20090;-79
2022/09/29 12:12:45;;;;;;;6.70;4.90;;;;;;;;;;5049815;28;20029;-76
2022/09/29 12:15:22;;;;;;;8.68;5.28;;;;;;;;;;5068147;28;20052;-77
2022/09/29 12:17:53;;;;;;;6.45;3.53;;;;;;;;;;5068192;28;20028;-75
2022/09/29 12:20:28;;;;;;;6.78;2.65;;;;;;;;;;5069519;28;20230;-76
2022/09/29 12:22:56;;;;;;;5.30;2.13;;;;;;;;;;5069180;28;20570;-77
2022/09/29 12:25:24;;;;;;;8.40;3.15;;;;;;;;;;5068636;28;20027;-77
2022/09/29 12:27:52;;;;;;;7.07;2.83;;;;;;;;;;5068433;28;20024;-77
2022/09/29 12:30:28;;;;;;;6.03;3.35;;;;;;;;;;5068152;28;20108;-76
2022/09/29 12:33:05;;;;;;;4.80;2.92;;;;;;;;;;5057749;28;20028;-77
2022/09/29 12:35:31;;;;;;;5.10;2.67;;;;;;;;;;5065921;28;20101;-76
2022/09/29 12:38:17;;;;;;;5.43;2.78;;;;;;;;;;5066819;28;20100;-76
2022/09/29 12:40:48;;;;;;;3.83;2.35;;;;;;;;;;5066501;28;20116;-77
2022/09/29 12:43:36;;;;;;;6.53;3.95;;;;;;;;;;5068972;28;20044;-78
2022/09/29 12:46:09;;;;;;;7.97;2.45;;;;;;;;;;5068307;28;20098;-77
2022/09/29 12:48:38;;;;;;;7.40;3.35;;;;;;;;;;5067821;28;20047;-77
2022/09/29 12:51:19;;;;;;;3.72;2.03;;;;;;;;;;5068045;28;20464;-77
2022/09/29 12:54:12;;;;;;;3.28;1.40;;;;;;;;;;5050916;28;20553;-77
2022/09/29 12:56:39;;;;;;;3.65;1.98;;;;;;;;;;5055754;28;20037;-76
2022/09/29 12:59:18;;;;;;;4.50;2.67;;;;;;;;;;5049715;28;20029;-77
2022/09/29 13:01:46;;;;;;;5.37;2.50;;;;;;;;;;5049440;28;20078;-77
2022/09/29 13:04:31;;;;;;;3.08;1.60;;;;;;;;;;5050052;28;20096;-77
2022/09/29 13:06:57;;;;;;;5.60;2.72;;;;;;;;;;5048426;28;20099;-77
2022/09/29 13:09:41;;;;;;;5.60;1.83;;;;;;;;;;5048343;28;20108;-78
2022/09/29 13:12:23;;;;;;;6.07;2.03;;;;;;;;;;5056079;28;20485;-77
2022/09/29 13:14:55;;;;;;;6.85;2.58;;;;;;;;;;5060938;28;20384;-77
2022/09/29 13:17:44;;;;;;;4.47;2.22;;;;;;;;;;5069546;28;20693;-77
2022/09/29 13:20:34;;;;;;;5.70;1.30;;;;;;;;;;5068975;28;20028;-75
2022/09/29 13:23:01;;;;;;;4.88;2.55;;;;;;;;;;5069031;28;20082;-76
2022/09/29 13:25:33;;;;;;;5.35;1.88;;;;;;;;;;5069400;28;20047;-77
2022/09/29 13:28:00;;;;;;;5.47;2.35;;;;;;;;;;5069577;28;20032;-75
2022/09/29 13:30:32;;;;;;;3.45;1.75;;;;;;;;;;5070287;28;20059;-77
2022/09/29 13:33:15;;;;;;;5.15;2.33;;;;;;;;;;5067020;28;20135;-75
2022/09/29 13:35:47;;;;;;;5.15;3.13;;;;;;;;;;5057127;28;20044;-75
2022/09/29 13:38:16;;;;;;;4.53;2.85;;;;;;;;;;5063680;28;20386;-76
2022/09/29 13:41:02;;;;;;;5.80;1.88;;;;;;;;;;5049968;28;20025;-77
2022/09/29 13:43:37;;;;;;;6.60;3.13;;;;;;;;;;5049344;28;20049;-75
2022/09/29 13:46:22;;;;;;;6.57;4.82;;;;;;;;;;5049082;28;20032;-77
2022/09/29 13:48:53;;;;;;;3.17;1.52;;;;;;;;;;5049507;28;20032;-76
2022/09/29 13:51:21;;;;;;;3.05;1.30;;;;;;;;;;5060780;28;20067;-76
2022/09/29 13:54:07;;;;;;;3.88;1.58;;;;;;;;;;5055167;28;20029;-77
2022/09/29 13:56:34;;;;;;;6.72;1.42;;;;;;;;;;5058865;28;20041;-78
2022/09/29 13:59:01;;;;;;;4.05;2.05;;;;;;;;;;5049892;28;20397;-79
2022/09/29 14:01:37;;;;;;;3.28;1.13;;;;;;;;;;5049230;28;20021;-77
2022/09/29 14:04:27;;;;;;;1.48;0.95;;;;;;;;;;5064612;28;20494;-78
2022/09/29 14:06:53;;;;;;;;;;;;;;;;;;5069319;28;20037;-78
2022/09/29 14:09:22;;;;;;;1.35;0.70;;;;;;;;;;5068886;28;19923;-77
2022/09/29 14:11:52;;;;;;;3.22;1.27;;;;;;;;;;5067531;28;20032;-77
2022/09/29 14:14:21;;;;;;;;;;;;;;;;;;5073485;28;20105;-76
2022/09/29 14:17:00;;;;;;;4.40;1.27;;;;;;;;;;5072750;28;19991;-79
2022/09/29 14:19:45;;;;;;;3.05;1.85;;;;;;;;;;5073004;28;20063;-79
2022/09/29 14:22:29;;;;;;;3.75;0.98;;;;;;;;;;5073285;28;20079;-78
2022/09/29 14:25:15;;;;;;;2.92;1.60;;;;;;;;;;5052899;28;20476;-76
2022/09/29 14:27:57;;;;;;;4.28;1.60;;;;;;;;;;5052168;28;20067;-76
2022/09/29 14:30:26;;;;;;;2.40;1.00;;;;;;;;;;5052956;28;20052;-76
2022/09/29 14:33:05;;;;;;;3.33;2.05;;;;;;;;;;5052717;28;20033;-78
2022/09/29 14:35:39;;;;;;;3.28;1.35;;;;;;;;;;5054510;28;20060;-77
2022/09/29 14:38:11;;;;;;;2.10;0.82;;;;;;;;;;5052419;28;20112;-78
2022/09/29 14:40:37;;;;;;;2.55;1.35;;;;;;;;;;5052515;28;20036;-77
2022/09/29 14:43:03;;;;;;;0.88;0.68;;;;;;;;;;5052464;28;20037;-78
2022/09/29 14:54:11;;;;;;;2.40;0.85;;;;;;;;;;5052118;28;20090;-77
2022/09/29 14:56:36;;;;;;;2.72;0.90;;;;;;;;;;5052661;28;20041;-79
2022/09/29 14:59:02;;;;;;;4.03;1.00;;;;;;;;;;5056783;28;20035;-79